Terminal Aerodrome Forecast
Issued by NWS

Home | Current Version | Previous Version | Text Only | Print | Product List | Glossary On
Versions: 1 2 3 4 5 6 7 8 9 10 11 12 13 14 15 16 17 18 19 20 21 22 23 24 25
000
FTUS41 KAKQ 080559 CCA
TAFPHF
TAF COR
KPHF 080559Z 0806/0906 00000KT 5SM BR BKN200
      TEMPO 0806/0808 2SM MIFG
     FM081200 00000KT P6SM OVC030
     FM081500 24006KT P6SM VCSH OVC025
     FM081800 31006KT P6SM OVC050
     FM082200 31010KT P6SM SCT200=

USA.gov is the U.S. government's official web portal to all federal, state and local government web resources and services.